createdAt,value
2022-12-05T00:01:59.705Z,0.70
2022-12-05T00:04:49.602Z,0.70
2022-12-05T00:07:39.049Z,0.60
2022-12-05T00:10:28.604Z,0.70
2022-12-05T00:13:19.354Z,0.70
2022-12-05T00:16:11.436Z,0.70
2022-12-05T00:19:01.873Z,0.80
2022-12-05T00:21:51.753Z,0.80
2022-12-05T00:24:41.756Z,0.80
2022-12-05T00:27:31.192Z,0.60
2022-12-05T00:30:22.352Z,0.50
2022-12-05T00:33:11.739Z,0.60
2022-12-05T00:36:04.738Z,0.50
2022-12-05T00:38:55.350Z,0.40
2022-12-05T00:41:45.383Z,0.50
2022-12-05T00:44:34.868Z,0.30
2022-12-05T00:47:25.762Z,0.40
2022-12-05T00:50:15.106Z,0.30
2022-12-05T00:53:04.453Z,0.40
2022-12-05T00:55:53.742Z,0.40
2022-12-05T00:58:44.012Z,0.50
2022-12-05T01:01:35.690Z,0.40
2022-12-05T01:04:27.670Z,0.40
2022-12-05T01:07:19.093Z,0.40
2022-12-05T01:10:09.986Z,0.30
2022-12-05T01:12:59.526Z,0.40
2022-12-05T01:15:49.852Z,0.40
2022-12-05T01:18:39.320Z,0.40
2022-12-05T01:21:30.181Z,0.30
2022-12-05T01:24:21.396Z,0.40
2022-12-05T01:27:11.121Z,0.40
2022-12-05T01:30:01.803Z,0.50
2022-12-05T01:32:51.135Z,0.50
2022-12-05T01:35:42.853Z,0.30
2022-12-05T01:38:33.595Z,0.30
2022-12-05T01:41:24.923Z,0.30
2022-12-05T01:44:51.274Z,0.30
2022-12-05T01:47:41.493Z,0.40
2022-12-05T01:50:31.033Z,0.30
2022-12-05T01:53:20.862Z,0.40
2022-12-05T01:56:12.343Z,0.40
2022-12-05T01:59:03.283Z,0.30
2022-12-05T02:01:53.259Z,0.20
2022-12-05T02:04:50.733Z,0.40
2022-12-05T02:07:42.532Z,0.40
2022-12-05T02:13:19.018Z,0.40
2022-12-05T02:16:16.136Z,0.50
2022-12-05T02:19:36.469Z,0.40
2022-12-05T02:22:45.003Z,0.40
2022-12-05T02:26:08.811Z,0.50
2022-12-05T02:29:23.843Z,0.40
2022-12-05T02:32:22.756Z,0.50
2022-12-05T02:35:23.522Z,0.40
2022-12-05T02:38:26.147Z,0.40
2022-12-05T02:41:24.152Z,0.40
2022-12-05T02:44:17.610Z,0.50
2022-12-05T02:47:10.273Z,0.30
2022-12-05T02:50:02.413Z,0.20
2022-12-05T02:52:55.043Z,0.20
2022-12-05T02:55:45.625Z,0.30
2022-12-05T02:58:40.911Z,0.10
2022-12-05T03:01:33.843Z,0.10
2022-12-05T03:04:27.293Z,0.00
2022-12-05T03:07:20.879Z,0.10
2022-12-05T03:10:11.442Z,0.20
2022-12-05T03:13:07.582Z,0.20
2022-12-05T03:16:02.034Z,0.20
2022-12-05T03:18:57.663Z,0.20
2022-12-05T03:21:54.402Z,0.10
2022-12-05T03:24:45.129Z,0.20
2022-12-05T03:27:42.733Z,0.30
2022-12-05T03:30:37.186Z,0.20
2022-12-05T03:33:30.320Z,0.20
2022-12-05T03:36:24.761Z,0.20
2022-12-05T03:39:23.798Z,0.30
2022-12-05T03:42:15.473Z,0.30
2022-12-05T03:45:13.749Z,0.30
2022-12-05T03:48:12.621Z,0.40
2022-12-05T03:51:03.952Z,0.30
2022-12-05T03:53:56.164Z,0.40
2022-12-05T03:56:49.487Z,0.40
2022-12-05T03:59:46.079Z,0.20
2022-12-05T04:02:45.854Z,0.20
2022-12-05T04:05:41.209Z,0.30
2022-12-05T04:08:33.568Z,0.30
2022-12-05T04:11:27.036Z,0.30
2022-12-05T04:14:20.666Z,0.20
2022-12-05T04:17:18.110Z,0.30
2022-12-05T04:20:29.816Z,0.30
2022-12-05T04:23:19.362Z,0.10
2022-12-05T04:26:17.560Z,0.10
2022-12-05T04:29:11.550Z,0.10
2022-12-05T04:32:07.402Z,0.10
2022-12-05T04:35:03.484Z,0.10
2022-12-05T04:37:58.070Z,0.20
2022-12-05T04:40:54.574Z,0.20
2022-12-05T04:43:46.748Z,0.20
2022-12-05T04:46:37.818Z,0.20
2022-12-05T04:49:29.520Z,0.30
2022-12-05T04:52:20.830Z,0.20
2022-12-05T04:55:14.827Z,0.20
2022-12-05T04:58:09.412Z,0.20
2022-12-05T05:01:05.513Z,0.00
2022-12-05T05:03:59.651Z,-0.10
2022-12-05T05:06:49.468Z,0.00
2022-12-05T05:09:41.128Z,0.10
2022-12-05T05:12:30.731Z,-0.10
2022-12-05T05:15:20.293Z,0.00
2022-12-05T05:18:11.169Z,0.10
2022-12-05T05:21:01.292Z,0.10
2022-12-05T05:23:50.794Z,0.20
2022-12-05T05:26:43.775Z,0.10
2022-12-05T05:29:33.138Z,0.20
2022-12-05T05:32:22.560Z,0.20
2022-12-05T05:35:13.468Z,0.20
2022-12-05T05:38:03.297Z,0.20
2022-12-05T05:40:52.770Z,0.00
2022-12-05T05:43:44.431Z,-0.10
2022-12-05T05:46:35.814Z,-0.10
2022-12-05T05:49:25.657Z,-0.10
2022-12-05T05:52:15.053Z,0.00
2022-12-05T05:55:05.914Z,0.00
2022-12-05T05:57:55.346Z,0.10
2022-12-05T06:00:46.794Z,0.00
2022-12-05T06:03:36.751Z,-0.10
2022-12-05T06:06:26.656Z,-0.10
2022-12-05T06:09:16.601Z,0.00
2022-12-05T06:12:06.530Z,0.10
2022-12-05T06:14:56.222Z,-0.10
2022-12-05T06:17:47.024Z,0.00
2022-12-05T06:20:36.999Z,0.00
2022-12-05T06:23:27.404Z,-0.10
2022-12-05T06:26:19.049Z,0.00
2022-12-05T06:29:08.445Z,0.00
2022-12-05T06:31:57.823Z,0.00
2022-12-05T06:34:48.560Z,0.10
2022-12-05T06:37:39.317Z,0.00
2022-12-05T06:40:28.832Z,-0.10
2022-12-05T06:43:18.483Z,-0.20
2022-12-05T06:46:08.440Z,-0.10
2022-12-05T06:48:59.418Z,-0.10
2022-12-05T06:51:50.535Z,-0.20
2022-12-05T06:54:40.060Z,-0.20
2022-12-05T06:57:30.577Z,0.00
2022-12-05T07:00:37.706Z,0.00
2022-12-05T07:03:27.646Z,0.00
2022-12-05T07:06:17.255Z,0.00
2022-12-05T07:09:08.866Z,0.00
2022-12-05T07:11:58.863Z,-0.10
2022-12-05T07:14:50.138Z,-0.10
2022-12-05T07:17:41.187Z,-0.20
2022-12-05T07:20:49.457Z,-0.10
2022-12-05T07:23:40.933Z,-0.20
2022-12-05T07:26:31.664Z,-0.10
2022-12-05T07:29:21.064Z,-0.10
2022-12-05T07:32:11.208Z,-0.20
2022-12-05T07:35:00.840Z,-0.20
2022-12-05T07:37:50.101Z,-0.10
2022-12-05T07:40:39.890Z,0.00
2022-12-05T07:43:30.931Z,-0.20
2022-12-05T07:46:20.552Z,-0.10
2022-12-05T07:49:10.336Z,-0.10
2022-12-05T07:51:59.484Z,-0.10
2022-12-05T07:54:49.126Z,-0.30
2022-12-05T07:57:38.606Z,-0.30
2022-12-05T08:00:29.427Z,-0.30
2022-12-05T08:03:18.748Z,-0.30
2022-12-05T08:06:09.892Z,-0.20
2022-12-05T08:08:59.413Z,-0.20
2022-12-05T08:11:52.519Z,-0.20
2022-12-05T08:14:42.880Z,-0.20
2022-12-05T08:17:34.080Z,-0.30
2022-12-05T08:20:23.472Z,-0.20
2022-12-05T08:23:12.721Z,-0.30
2022-12-05T08:26:04.653Z,-0.40
2022-12-05T08:28:54.767Z,-0.30
2022-12-05T08:31:47.503Z,-0.30
2022-12-05T08:34:38.568Z,-0.30
2022-12-05T08:37:27.953Z,-0.20
2022-12-05T08:40:17.727Z,-0.20
2022-12-05T08:43:07.078Z,0.00
2022-12-05T08:45:56.578Z,-0.10
2022-12-05T08:48:46.020Z,0.10
2022-12-05T08:51:36.784Z,0.10
2022-12-05T08:54:26.750Z,0.10
2022-12-05T08:57:16.172Z,0.10
2022-12-05T09:00:07.148Z,0.10
2022-12-05T09:02:56.640Z,0.20
2022-12-05T09:05:45.886Z,0.20
2022-12-05T09:08:37.079Z,0.30
2022-12-05T09:11:28.516Z,0.30
2022-12-05T09:14:18.822Z,0.30
2022-12-05T09:17:08.817Z,0.10
2022-12-05T09:19:58.829Z,0.20
2022-12-05T09:22:48.432Z,0.00
2022-12-05T09:25:39.208Z,-0.10
2022-12-05T09:28:28.509Z,0.10
2022-12-05T09:31:19.967Z,0.10
2022-12-05T09:34:09.739Z,0.10
2022-12-05T09:37:16.718Z,0.10
2022-12-05T09:40:10.305Z,0.20
2022-12-05T09:43:07.587Z,0.20
2022-12-05T09:46:02.160Z,0.20
2022-12-05T09:48:52.938Z,0.30
2022-12-05T09:51:49.568Z,0.30
2022-12-05T09:54:41.630Z,0.10
2022-12-05T09:57:36.686Z,0.20
2022-12-05T10:00:31.108Z,0.10
2022-12-05T10:03:27.918Z,0.10
2022-12-05T10:06:23.267Z,0.10
2022-12-05T10:09:28.760Z,0.20
2022-12-05T10:12:28.947Z,0.10
2022-12-05T10:15:28.168Z,0.20
2022-12-05T10:18:30.074Z,0.10
2022-12-05T10:21:25.666Z,0.00
2022-12-05T10:24:19.427Z,-0.10
2022-12-05T10:27:13.069Z,0.20
2022-12-05T10:30:06.772Z,0.30
2022-12-05T10:32:57.668Z,0.30
2022-12-05T10:35:51.281Z,0.40
2022-12-05T10:38:41.493Z,0.30
2022-12-05T10:41:31.314Z,0.30
2022-12-05T10:44:20.712Z,0.30
2022-12-05T10:47:11.220Z,0.40
2022-12-05T10:50:05.234Z,0.40
2022-12-05T10:52:57.663Z,0.40
2022-12-05T10:56:21.526Z,0.50
2022-12-05T10:59:00.587Z,0.70
2022-12-05T11:01:52.705Z,0.70
2022-12-05T11:04:45.726Z,0.70
2022-12-05T11:07:37.486Z,0.70
2022-12-05T11:10:34.236Z,0.80
2022-12-05T11:13:27.452Z,0.60
2022-12-05T11:16:26.995Z,0.70
2022-12-05T11:19:25.931Z,0.70
2022-12-05T11:22:19.211Z,0.60
2022-12-05T11:25:31.416Z,0.60
2022-12-05T11:28:38.760Z,0.50
2022-12-05T11:31:30.719Z,0.70
2022-12-05T11:34:26.141Z,0.50
2022-12-05T11:37:20.192Z,0.60
2022-12-05T11:40:17.992Z,0.60
2022-12-05T11:43:35.605Z,0.50
2022-12-05T11:46:36.564Z,0.60
2022-12-05T11:49:44.196Z,0.60
2022-12-05T11:52:42.989Z,0.60
2022-12-05T11:55:39.254Z,0.70
2022-12-05T11:58:46.794Z,0.60
2022-12-05T12:01:48.150Z,0.60
2022-12-05T12:04:53.061Z,0.70
2022-12-05T12:07:58.569Z,0.50
2022-12-05T12:10:57.171Z,0.60
2022-12-05T12:14:01.151Z,0.60
2022-12-05T12:17:05.379Z,0.50
2022-12-05T12:20:20.460Z,0.60
2022-12-05T12:23:40.497Z,0.60
2022-12-05T12:26:40.330Z,0.70
2022-12-05T12:29:48.129Z,0.60
2022-12-05T12:32:46.009Z,0.70
2022-12-05T12:35:44.039Z,0.60
2022-12-05T12:38:51.293Z,0.50
2022-12-05T12:42:10.342Z,0.50
2022-12-05T12:45:33.434Z,0.50
2022-12-05T12:48:44.109Z,0.60
2022-12-05T12:51:35.065Z,0.60
2022-12-05T12:55:03.455Z,0.60
2022-12-05T12:58:08.706Z,0.50
2022-12-05T13:01:05.611Z,0.50
2022-12-05T13:04:03.037Z,0.50
2022-12-05T13:06:56.717Z,0.50
2022-12-05T13:09:51.996Z,0.50
2022-12-05T13:12:44.488Z,0.50
2022-12-05T13:15:41.265Z,0.50
2022-12-05T13:18:32.027Z,0.50
2022-12-05T13:21:22.261Z,0.60
2022-12-05T13:24:15.186Z,0.50
2022-12-05T13:27:08.438Z,0.50
2022-12-05T13:30:01.437Z,0.40
2022-12-05T13:32:58.726Z,0.40
2022-12-05T13:36:07.157Z,0.50
2022-12-05T13:39:17.987Z,0.50
2022-12-05T13:42:14.414Z,0.40
2022-12-05T13:45:12.331Z,0.30
2022-12-05T13:48:22.472Z,0.40
2022-12-05T13:51:23.008Z,0.40
2022-12-05T13:54:17.531Z,0.30
2022-12-05T13:57:06.890Z,0.40
2022-12-05T14:00:23.411Z,0.40
2022-12-05T14:03:57.819Z,0.50
2022-12-05T14:07:00.799Z,0.30
2022-12-05T14:09:55.494Z,0.30
2022-12-05T14:13:03.197Z,0.30
2022-12-05T14:15:54.129Z,0.30
2022-12-05T14:18:50.349Z,0.40
2022-12-05T14:21:44.159Z,0.30
2022-12-05T14:24:40.150Z,0.30
2022-12-05T14:27:47.220Z,0.30
2022-12-05T14:30:50.613Z,0.30
2022-12-05T14:33:40.132Z,0.30
2022-12-05T14:36:31.834Z,0.30
2022-12-05T14:39:30.167Z,0.30
2022-12-05T14:42:37.251Z,0.30
2022-12-05T14:45:32.144Z,0.20
2022-12-05T14:48:30.536Z,0.20
2022-12-05T14:51:45.712Z,0.20
2022-12-05T14:54:35.703Z,0.20
2022-12-05T14:57:25.210Z,0.20
2022-12-05T15:00:22.775Z,0.20
2022-12-05T15:03:27.223Z,0.30
2022-12-05T15:06:18.252Z,0.20
2022-12-05T15:09:36.398Z,0.20
2022-12-05T15:12:34.223Z,0.20
2022-12-05T15:15:38.035Z,0.30
2022-12-05T15:18:31.622Z,0.30
2022-12-05T15:21:26.844Z,0.30
2022-12-05T15:24:17.805Z,0.30
2022-12-05T15:27:13.103Z,0.20
2022-12-05T15:30:02.481Z,0.20
2022-12-05T15:32:59.067Z,0.10
2022-12-05T15:35:52.108Z,0.10
2022-12-05T15:38:41.516Z,0.10
2022-12-05T15:41:30.946Z,0.20
2022-12-05T15:44:26.721Z,0.10
2022-12-05T15:47:24.055Z,0.20
2022-12-05T15:50:18.608Z,0.20
2022-12-05T15:53:14.871Z,0.00
2022-12-05T15:56:10.745Z,0.10
2022-12-05T15:59:06.025Z,0.20
2022-12-05T16:01:58.874Z,0.20
2022-12-05T16:04:51.785Z,0.30
2022-12-05T16:07:43.336Z,0.20
2022-12-05T16:10:33.275Z,0.30
2022-12-05T16:13:28.829Z,0.30
2022-12-05T16:16:21.040Z,0.30
2022-12-05T16:19:17.266Z,0.20
2022-12-05T16:22:10.179Z,0.10
2022-12-05T16:25:05.025Z,0.10
2022-12-05T16:28:03.448Z,0.10
2022-12-05T16:30:58.258Z,0.10
2022-12-05T16:33:47.842Z,0.20
2022-12-05T16:36:38.115Z,0.20
2022-12-05T16:39:29.814Z,0.20
2022-12-05T16:42:26.854Z,0.30
2022-12-05T16:45:39.960Z,0.30
2022-12-05T16:48:31.108Z,0.10
2022-12-05T16:51:22.849Z,0.10
2022-12-05T16:54:12.996Z,0.10
2022-12-05T16:57:03.104Z,0.10
2022-12-05T16:59:54.385Z,0.10
2022-12-05T17:02:44.253Z,0.10
2022-12-05T17:05:34.351Z,0.30
2022-12-05T17:08:24.120Z,0.30
2022-12-05T17:11:18.704Z,0.30
2022-12-05T17:14:13.012Z,0.20
2022-12-05T17:17:06.652Z,0.10
2022-12-05T17:19:56.191Z,0.20
2022-12-05T17:22:49.593Z,0.30
2022-12-05T17:25:40.950Z,0.30
2022-12-05T17:28:31.341Z,0.30
2022-12-05T17:31:23.681Z,0.30
2022-12-05T17:34:17.746Z,0.20
2022-12-05T17:37:07.443Z,0.10
2022-12-05T17:39:57.832Z,0.10
2022-12-05T17:42:47.940Z,0.20
2022-12-05T17:45:37.587Z,0.20
2022-12-05T17:48:26.931Z,0.20
2022-12-05T17:51:24.220Z,0.20
2022-12-05T17:54:13.753Z,0.30
2022-12-05T17:57:03.593Z,0.20
2022-12-05T17:59:53.065Z,0.20
2022-12-05T18:02:42.571Z,0.20
2022-12-05T18:05:31.944Z,0.20
2022-12-05T18:08:24.734Z,0.30
2022-12-05T18:11:14.728Z,0.30
2022-12-05T18:14:04.126Z,0.20
2022-12-05T18:16:53.494Z,0.20
2022-12-05T18:19:43.013Z,0.10
2022-12-05T18:22:32.307Z,0.10
2022-12-05T18:25:24.683Z,0.10
2022-12-05T18:28:18.013Z,0.20
2022-12-05T18:31:16.055Z,0.30
2022-12-05T18:34:05.813Z,0.30
2022-12-05T18:36:56.772Z,0.30
2022-12-05T18:39:46.762Z,0.30
2022-12-05T18:42:38.531Z,0.30
2022-12-05T18:45:28.382Z,0.40
2022-12-05T18:48:38.070Z,0.30
2022-12-05T18:51:31.739Z,0.40
2022-12-05T18:54:24.571Z,0.30
2022-12-05T18:57:15.305Z,0.20
2022-12-05T19:00:08.313Z,0.20
2022-12-05T19:02:57.944Z,0.30
2022-12-05T19:05:48.096Z,0.30
2022-12-05T19:08:37.841Z,0.40
2022-12-05T19:11:28.152Z,0.40
2022-12-05T19:14:19.122Z,0.30
2022-12-05T19:17:14.085Z,0.30
2022-12-05T19:20:07.915Z,0.30
2022-12-05T19:23:01.046Z,0.40
2022-12-05T19:25:51.472Z,0.40
2022-12-05T19:28:40.913Z,0.40
2022-12-05T19:31:31.672Z,0.50
2022-12-05T19:34:25.082Z,0.50
2022-12-05T19:37:15.083Z,0.60
2022-12-05T19:40:09.111Z,0.60
2022-12-05T19:43:00.990Z,0.70
2022-12-05T19:45:52.964Z,0.60
2022-12-05T19:48:42.858Z,0.60
2022-12-05T19:51:35.357Z,0.70
2022-12-05T19:54:25.191Z,0.60
2022-12-05T19:57:15.114Z,0.60
2022-12-05T20:00:05.182Z,0.60
2022-12-05T20:02:55.638Z,0.70
2022-12-05T20:05:45.474Z,0.60
2022-12-05T20:08:38.021Z,0.60
2022-12-05T20:11:29.743Z,0.60
2022-12-05T20:14:20.711Z,0.50
2022-12-05T20:17:10.668Z,0.50
2022-12-05T20:20:00.268Z,0.60
2022-12-05T20:22:50.554Z,0.60
2022-12-05T20:25:41.914Z,0.60
2022-12-05T20:28:31.994Z,0.50
2022-12-05T20:31:23.840Z,0.60
2022-12-05T20:34:15.991Z,0.70
2022-12-05T20:37:06.551Z,0.60
2022-12-05T20:39:56.753Z,0.60
2022-12-05T20:42:49.038Z,0.60
2022-12-05T20:45:40.352Z,0.60
2022-12-05T20:48:30.215Z,0.50
2022-12-05T20:51:21.912Z,0.60
2022-12-05T20:54:13.451Z,0.70
2022-12-05T20:57:03.681Z,0.70
2022-12-05T20:59:54.647Z,0.70
2022-12-05T21:02:44.568Z,0.70
2022-12-05T21:05:36.186Z,0.70
2022-12-05T21:08:26.087Z,0.70
2022-12-05T21:11:16.142Z,0.60
2022-12-05T21:14:06.585Z,0.60
2022-12-05T21:16:57.428Z,0.70
2022-12-05T21:19:47.103Z,0.80
2022-12-05T21:22:37.192Z,0.80
2022-12-05T21:25:26.632Z,0.90
2022-12-05T21:28:16.071Z,0.70
2022-12-05T21:31:10.384Z,0.70
2022-12-05T21:34:02.832Z,0.80
2022-12-05T21:36:52.224Z,0.80
2022-12-05T21:39:41.739Z,0.80
2022-12-05T21:42:31.165Z,0.80
2022-12-05T21:45:20.591Z,0.80
2022-12-05T21:48:10.081Z,0.80
2022-12-05T21:51:01.263Z,0.70
2022-12-05T21:53:51.533Z,0.70
2022-12-05T21:56:42.424Z,0.70
2022-12-05T21:59:33.241Z,0.70
2022-12-05T22:02:22.660Z,0.80
2022-12-05T22:05:13.135Z,0.70
2022-12-05T22:08:06.719Z,0.70
2022-12-05T22:10:56.328Z,0.70
2022-12-05T22:13:46.667Z,0.70
2022-12-05T22:16:36.158Z,0.70
2022-12-05T22:19:25.741Z,0.80
2022-12-05T22:22:15.980Z,0.80
2022-12-05T22:25:07.560Z,0.80
2022-12-05T22:27:57.341Z,0.70
2022-12-05T22:30:48.949Z,0.70
2022-12-05T22:33:38.971Z,0.80
2022-12-05T22:36:29.281Z,0.80
2022-12-05T22:39:18.821Z,0.70
2022-12-05T22:42:10.202Z,0.70
2022-12-05T22:45:00.367Z,0.70
2022-12-05T22:47:49.886Z,0.80
2022-12-05T22:50:39.899Z,0.70
2022-12-05T22:53:32.258Z,0.70
2022-12-05T22:56:22.894Z,0.70
2022-12-05T22:59:14.955Z,0.80
2022-12-05T23:02:04.367Z,0.80
2022-12-05T23:04:53.888Z,0.80
2022-12-05T23:07:43.368Z,0.80
2022-12-05T23:10:32.946Z,0.80
2022-12-05T23:13:23.607Z,0.80
2022-12-05T23:16:16.432Z,0.80
2022-12-05T23:19:08.631Z,0.90
2022-12-05T23:21:57.990Z,0.90
2022-12-05T23:24:47.376Z,0.80
2022-12-05T23:27:36.660Z,0.80
2022-12-05T23:30:26.172Z,0.90
2022-12-05T23:33:17.341Z,0.90
2022-12-05T23:36:08.190Z,0.80
2022-12-05T23:38:57.763Z,0.80
2022-12-05T23:41:49.222Z,0.90
2022-12-05T23:44:38.625Z,0.80
2022-12-05T23:47:28.443Z,0.80
2022-12-05T23:50:19.547Z,0.90
2022-12-05T23:53:09.143Z,0.90
2022-12-05T23:56:03.140Z,0.80
2022-12-05T23:58:53.339Z,0.90
